createdAt,value
2022-12-08T00:02:19.683Z,97923.75
2022-12-08T00:05:40.749Z,97922.59
2022-12-08T00:09:02.016Z,97930.84
2022-12-08T00:12:09.424Z,97942.34
2022-12-08T00:15:12.851Z,97939.91
2022-12-08T00:18:16.328Z,97934.41
2022-12-08T00:21:19.883Z,97945.91
2022-12-08T00:24:26.508Z,97945.09
2022-12-08T00:27:31.401Z,97953.84
2022-12-08T00:30:34.739Z,97953.84
2022-12-08T00:33:38.711Z,97945.91
2022-12-08T00:36:43.412Z,97949.00
2022-12-08T00:39:47.930Z,97952.88
2022-12-08T00:42:52.819Z,97964.69
2022-12-08T00:45:56.359Z,97959.88
2022-12-08T00:48:59.774Z,97955.81
2022-12-08T00:52:03.932Z,97957.59
2022-12-08T00:55:08.055Z,97954.84
2022-12-08T00:58:12.949Z,97964.22
2022-12-08T01:01:16.755Z,97961.00
2022-12-08T01:04:21.781Z,97964.22
2022-12-08T01:07:25.186Z,97963.59
2022-12-08T01:10:28.897Z,97953.06
2022-12-08T01:13:33.980Z,97960.69
2022-12-08T01:16:38.888Z,97960.19
2022-12-08T01:19:42.726Z,97956.94
2022-12-08T01:22:46.201Z,97955.00
2022-12-08T01:25:49.518Z,97961.31
2022-12-08T01:28:54.534Z,97959.38
2022-12-08T01:31:57.833Z,97970.72
2022-12-08T01:35:01.723Z,97977.53
2022-12-08T01:38:05.268Z,97974.44
2022-12-08T01:41:08.785Z,97975.72
2022-12-08T01:45:06.258Z,97974.59
2022-12-08T01:48:19.471Z,97962.09
2022-12-08T01:51:23.279Z,97961.75
2022-12-08T01:54:33.171Z,97961.88
2022-12-08T01:57:44.725Z,97953.09
2022-12-08T02:00:52.204Z,97952.59
2022-12-08T02:04:01.081Z,97958.31
2022-12-08T02:07:08.491Z,97956.81
2022-12-08T02:10:18.061Z,97959.72
2022-12-08T02:13:24.529Z,97963.28
2022-12-08T02:16:43.497Z,97945.44
2022-12-08T02:20:20.356Z,97952.59
2022-12-08T02:23:37.602Z,97958.75
2022-12-08T02:27:33.559Z,97959.69
2022-12-08T02:30:52.385Z,97962.16
2022-12-08T02:34:19.976Z,97964.75
2022-12-08T02:37:32.817Z,97967.03
2022-12-08T02:40:47.498Z,97961.84
2022-12-08T02:43:59.838Z,97957.94
2022-12-08T02:47:10.015Z,97960.22
2022-12-08T02:50:16.231Z,97962.97
2022-12-08T02:53:19.970Z,97956.16
2022-12-08T02:56:59.142Z,97969.28
2022-12-08T03:00:12.114Z,97960.72
2022-12-08T03:03:25.968Z,97961.53
2022-12-08T03:06:42.376Z,97969.78
2022-12-08T03:09:52.954Z,97978.06
2022-12-08T03:13:05.580Z,97970.94
2022-12-08T03:16:15.547Z,97972.09
2022-12-08T03:19:24.956Z,97979.53
2022-12-08T03:22:30.667Z,97972.53
2022-12-08T03:25:42.169Z,97970.59
2022-12-08T03:28:46.925Z,97978.41
2022-12-08T03:31:57.207Z,97972.53
2022-12-08T03:35:08.131Z,97980.34
2022-12-08T03:38:16.509Z,97972.53
2022-12-08T03:41:21.830Z,97962.97
2022-12-08T03:44:25.539Z,97969.78
2022-12-08T03:47:29.048Z,97960.72
2022-12-08T03:50:32.597Z,97960.22
2022-12-08T03:53:38.489Z,97970.16
2022-12-08T03:56:42.067Z,97955.03
2022-12-08T03:59:45.894Z,97965.25
2022-12-08T04:02:49.575Z,97955.03
2022-12-08T04:05:53.282Z,97958.59
2022-12-08T04:08:58.460Z,97958.94
2022-12-08T04:12:01.903Z,97959.25
2022-12-08T04:15:06.754Z,97953.41
2022-12-08T04:18:10.181Z,97943.22
2022-12-08T04:21:14.061Z,97944.00
2022-12-08T04:24:20.488Z,97957.94
2022-12-08T04:27:24.067Z,97951.47
2022-12-08T04:30:27.328Z,97952.28
2022-12-08T04:33:31.175Z,97942.41
2022-12-08T04:36:34.502Z,97953.41
2022-12-08T04:39:39.588Z,97957.47
2022-12-08T04:42:44.334Z,97948.09
2022-12-08T04:45:48.305Z,97948.09
2022-12-08T04:48:51.934Z,97943.38
2022-12-08T04:51:55.414Z,97941.41
2022-12-08T04:55:00.451Z,97934.44
2022-12-08T04:58:04.005Z,97936.72
2022-12-08T05:01:07.487Z,97941.09
2022-12-08T05:04:11.016Z,97943.84
2022-12-08T05:07:14.583Z,97948.53
2022-12-08T05:10:19.546Z,97952.13
2022-12-08T05:13:23.040Z,97953.25
2022-12-08T05:16:26.808Z,97948.09
2022-12-08T05:19:30.242Z,97959.13
2022-12-08T05:22:33.706Z,97950.03
2022-12-08T05:25:38.472Z,97957.63
2022-12-08T05:28:43.395Z,97943.03
2022-12-08T05:31:47.356Z,97952.94
2022-12-08T05:34:51.367Z,97947.41
2022-12-08T05:37:54.982Z,97950.16
2022-12-08T05:41:00.023Z,97955.34
2022-12-08T05:44:03.404Z,97946.94
2022-12-08T05:47:06.994Z,97957.16
2022-12-08T05:50:11.311Z,97952.78
2022-12-08T05:53:15.074Z,97960.56
2022-12-08T05:56:21.408Z,97959.75
2022-12-08T05:59:25.009Z,97958.44
2022-12-08T06:02:28.840Z,97962.81
2022-12-08T06:05:34.422Z,97958.13
2022-12-08T06:08:37.796Z,97970.59
2022-12-08T06:11:46.376Z,97967.19
2022-12-08T06:14:49.857Z,97973.03
2022-12-08T06:17:53.632Z,97971.41
2022-12-08T06:21:05.178Z,97971.91
2022-12-08T06:24:09.517Z,97975.94
2022-12-08T06:27:14.311Z,97975.16
2022-12-08T06:30:19.254Z,97978.72
2022-12-08T06:33:22.748Z,97978.38
2022-12-08T06:36:28.608Z,97971.66
2022-12-08T06:39:32.080Z,97977.56
2022-12-08T06:42:47.125Z,97981.97
2022-12-08T06:45:50.955Z,97968.25
2022-12-08T06:48:55.398Z,97971.75
2022-12-08T06:51:58.770Z,97976.31
2022-12-08T06:55:02.428Z,97985.47
2022-12-08T06:58:07.295Z,97995.75
2022-12-08T07:01:13.911Z,97993.22
2022-12-08T07:04:17.489Z,97995.06
2022-12-08T07:07:21.035Z,97994.47
2022-12-08T07:10:24.419Z,97997.94
2022-12-08T07:13:29.281Z,97997.47
2022-12-08T07:16:33.059Z,97995.88
2022-12-08T07:19:36.533Z,97993.13
2022-12-08T07:22:40.032Z,97994.44
2022-12-08T07:25:43.647Z,97993.00
2022-12-08T07:28:48.509Z,97992.84
2022-12-08T07:31:52.198Z,97983.94
2022-12-08T07:34:55.763Z,97991.41
2022-12-08T07:37:59.467Z,97987.84
2022-12-08T07:41:03.235Z,97994.97
2022-12-08T07:44:08.087Z,97994.31
2022-12-08T07:47:11.514Z,97988.81
2022-12-08T07:50:15.196Z,97989.78
2022-12-08T07:53:18.567Z,97995.13
2022-12-08T07:56:22.805Z,97998.00
2022-12-08T07:59:27.735Z,97997.03
2022-12-08T08:02:31.364Z,97999.13
2022-12-08T08:05:34.915Z,98000.59
2022-12-08T08:08:38.469Z,98002.22
2022-12-08T08:11:41.876Z,97999.78
2022-12-08T08:14:46.825Z,97994.53
2022-12-08T08:17:52.585Z,97996.66
2022-12-08T08:20:58.051Z,97984.63
2022-12-08T08:24:01.670Z,97994.47
2022-12-08T08:27:05.482Z,97985.19
2022-12-08T08:30:19.917Z,97985.97
2022-12-08T08:33:24.603Z,97987.94
2022-12-08T08:36:27.933Z,97982.56
2022-12-08T08:39:31.853Z,97982.91
2022-12-08T08:42:35.171Z,97979.44
2022-12-08T08:45:40.207Z,97982.91
2022-12-08T08:48:44.003Z,97983.47
2022-12-08T08:51:48.069Z,97987.59
2022-12-08T08:54:51.554Z,97986.00
2022-12-08T08:57:55.831Z,97986.50
2022-12-08T09:01:00.550Z,97987.31
2022-12-08T09:04:04.254Z,97984.53
2022-12-08T09:07:07.689Z,97986.97
2022-12-08T09:10:14.619Z,97991.53
2022-12-08T09:13:19.210Z,97982.75
2022-12-08T09:16:25.275Z,97982.13
2022-12-08T09:19:28.901Z,97969.00
2022-12-08T09:22:32.365Z,97966.56
2022-12-08T09:25:35.830Z,97962.34
2022-12-08T09:28:39.443Z,97950.19
2022-12-08T09:31:44.760Z,97957.31
2022-12-08T09:34:52.040Z,97957.31
2022-12-08T09:37:55.831Z,97944.81
2022-12-08T09:41:01.366Z,97937.94
2022-12-08T09:44:38.653Z,97944.31
2022-12-08T09:47:49.572Z,97932.63
2022-12-08T09:50:57.381Z,97939.34
2022-12-08T09:54:08.730Z,97928.72
2022-12-08T09:57:21.530Z,97932.16
2022-12-08T10:00:25.492Z,97922.41
2022-12-08T10:03:32.514Z,97931.63
2022-12-08T10:06:48.111Z,97909.19
2022-12-08T10:10:04.025Z,97915.06
2022-12-08T10:13:21.828Z,97913.44
2022-12-08T10:16:35.519Z,97921.03
2022-12-08T10:19:44.082Z,97902.84
2022-12-08T10:22:54.272Z,97902.06
2022-12-08T10:26:04.724Z,97900.06
2022-12-08T10:29:14.545Z,97885.91
2022-12-08T10:32:22.801Z,97887.19
2022-12-08T10:35:46.286Z,97894.31
2022-12-08T10:38:49.847Z,97885.44
2022-12-08T10:41:53.487Z,97896.47
2022-12-08T10:45:03.674Z,97883.50
2022-12-08T10:48:18.358Z,97891.97
2022-12-08T10:51:31.410Z,97892.28
2022-12-08T10:54:38.343Z,97883.44
2022-12-08T10:57:42.071Z,97892.03
2022-12-08T11:00:45.513Z,97878.25
2022-12-08T11:03:52.853Z,97877.78
2022-12-08T11:06:57.940Z,97875.16
2022-12-08T11:10:01.792Z,97863.69
2022-12-08T11:13:15.233Z,97867.22
2022-12-08T11:16:21.297Z,97871.16
2022-12-08T11:19:28.880Z,97861.69
2022-12-08T11:22:39.726Z,97858.25
2022-12-08T11:25:43.250Z,97866.72
2022-12-08T11:28:46.860Z,97860.22
2022-12-08T11:31:56.231Z,97854.06
2022-12-08T11:35:04.994Z,97858.59
2022-12-08T11:38:21.567Z,97859.88
2022-12-08T11:41:33.167Z,97860.78
2022-12-08T11:44:46.593Z,97854.34
2022-12-08T11:48:03.010Z,97858.84
2022-12-08T11:51:14.945Z,97859.66
2022-12-08T11:54:28.482Z,97859.22
2022-12-08T11:57:31.922Z,97866.03
2022-12-08T12:00:35.605Z,97865.38
2022-12-08T12:03:47.164Z,97859.97
2022-12-08T12:07:32.014Z,97869.59
2022-12-08T12:11:01.591Z,97864.38
2022-12-08T12:14:27.762Z,97868.00
2022-12-08T12:17:45.345Z,97867.41
2022-12-08T12:20:58.450Z,97854.22
2022-12-08T12:24:08.972Z,97844.69
2022-12-08T12:27:28.985Z,97866.44
2022-12-08T12:30:55.174Z,97862.06
2022-12-08T12:34:09.596Z,97858.16
2022-12-08T12:37:19.057Z,97857.22
2022-12-08T12:40:28.969Z,97851.22
2022-12-08T12:43:37.954Z,97854.66
2022-12-08T12:46:57.422Z,97842.00
2022-12-08T12:50:10.767Z,97843.22
2022-12-08T12:53:51.802Z,97849.06
2022-12-08T12:56:57.512Z,97850.28
2022-12-08T13:00:26.859Z,97841.34
2022-12-08T13:03:30.605Z,97840.44
2022-12-08T13:06:42.353Z,97838.84
2022-12-08T13:09:45.906Z,97831.88
2022-12-08T13:13:08.451Z,97828.47
2022-12-08T13:16:25.454Z,97836.91
2022-12-08T13:19:34.294Z,97833.22
2022-12-08T13:23:05.361Z,97839.56
2022-12-08T13:26:18.393Z,97832.94
2022-12-08T13:29:24.018Z,97828.56
2022-12-08T13:33:18.677Z,97828.84
2022-12-08T13:36:29.685Z,97824.00
2022-12-08T13:39:45.134Z,97823.63
2022-12-08T13:43:05.749Z,97826.66
2022-12-08T13:47:02.695Z,97835.84
2022-12-08T13:57:10.589Z,97837.06
2022-12-08T14:00:18.481Z,97823.75
2022-12-08T14:03:23.121Z,97817.78
2022-12-08T14:06:32.448Z,97823.75
2022-12-08T14:09:38.680Z,97823.91
2022-12-08T14:12:48.207Z,97818.78
2022-12-08T14:15:51.594Z,97827.44
2022-12-08T14:18:55.045Z,97822.38
2022-12-08T14:22:02.312Z,97816.44
2022-12-08T14:25:09.333Z,97820.59
2022-12-08T14:28:14.637Z,97827.53
2022-12-08T14:31:18.788Z,97825.38
2022-12-08T14:34:22.168Z,97828.22
2022-12-08T14:37:32.247Z,97828.03
2022-12-08T14:40:38.090Z,97822.50
2022-12-08T14:43:43.067Z,97823.31
2022-12-08T14:47:06.293Z,97827.34
2022-12-08T14:50:42.543Z,97834.94
2022-12-08T14:53:55.502Z,97830.50
2022-12-08T14:57:03.284Z,97830.03
2022-12-08T15:00:12.208Z,97830.03
2022-12-08T15:03:18.686Z,97823.78
2022-12-08T15:06:23.720Z,97832.94
2022-12-08T15:09:36.747Z,97827.19
2022-12-08T15:12:40.149Z,97823.56
2022-12-08T15:15:51.264Z,97823.09
2022-12-08T15:19:16.891Z,97822.97
2022-12-08T15:22:24.170Z,97829.06
2022-12-08T15:25:28.870Z,97828.47
2022-12-08T15:28:32.341Z,97835.13
2022-12-08T15:31:35.939Z,97832.97
2022-12-08T15:34:39.427Z,97843.06
2022-12-08T15:37:43.002Z,97849.09
2022-12-08T15:40:48.303Z,97843.91
2022-12-08T15:43:53.286Z,97832.31
2022-12-08T15:46:57.500Z,97833.22
2022-12-08T15:50:00.762Z,97836.44
2022-12-08T15:53:04.510Z,97834.50
2022-12-08T15:59:33.563Z,97840.38
2022-12-08T16:03:04.316Z,97831.72
2022-12-08T16:06:50.786Z,97838.66
2022-12-08T16:09:34.039Z,97837.03
2022-12-08T16:13:55.111Z,97830.44
2022-12-08T16:16:30.167Z,97828.47
2022-12-08T16:19:33.651Z,97841.25
2022-12-08T16:26:24.087Z,97837.84
2022-12-08T16:29:26.919Z,97833.56
2022-12-08T16:32:31.062Z,97839.28
2022-12-08T16:35:34.861Z,97834.44
2022-12-08T16:38:38.873Z,97836.94
2022-12-08T16:41:59.718Z,97821.28
2022-12-08T16:45:08.484Z,97822.28
2022-12-08T16:48:15.659Z,97833.53
2022-12-08T16:51:26.650Z,97830.38
2022-12-08T16:54:30.481Z,97835.34
2022-12-08T16:57:35.428Z,97833.19
2022-12-08T17:00:40.361Z,97832.63
2022-12-08T17:04:07.096Z,97838.94
2022-12-08T17:07:10.048Z,97840.97
2022-12-08T17:10:18.005Z,97837.16
2022-12-08T17:13:21.325Z,97832.50
2022-12-08T17:16:27.042Z,97832.06
2022-12-08T17:19:30.704Z,97839.84
2022-12-08T17:22:35.426Z,97842.97
2022-12-08T17:25:38.673Z,97841.81
2022-12-08T17:28:59.895Z,97830.19
2022-12-08T17:32:06.143Z,97831.16
2022-12-08T17:35:11.168Z,97826.31
2022-12-08T17:38:14.357Z,97829.72
2022-12-08T17:41:18.303Z,97829.25
2022-12-08T17:44:21.947Z,97828.75
2022-12-08T17:47:27.139Z,97831.69
2022-12-08T17:50:30.440Z,97830.19
2022-12-08T17:53:37.338Z,97831.66
2022-12-08T17:56:40.918Z,97830.97
2022-12-08T17:59:45.008Z,97831.44
2022-12-08T18:02:49.803Z,97828.72
2022-12-08T18:05:55.187Z,97831.91
2022-12-08T18:09:00.187Z,97828.19
2022-12-08T18:12:04.107Z,97834.81
2022-12-08T18:15:13.626Z,97836.59
2022-12-08T18:18:19.869Z,97830.28
2022-12-08T18:21:23.862Z,97825.25
2022-12-08T18:24:27.718Z,97836.00
2022-12-08T18:27:31.329Z,97825.66
2022-12-08T18:30:34.929Z,97819.09
2022-12-08T18:33:42.259Z,97821.13
2022-12-08T18:36:46.965Z,97816.16
2022-12-08T18:39:50.835Z,97819.75
2022-12-08T18:42:55.138Z,97811.38
2022-12-08T18:46:03.032Z,97818.53
2022-12-08T18:49:13.021Z,97806.09
2022-12-08T18:52:22.077Z,97825.59
2022-12-08T18:55:29.579Z,97812.84
2022-12-08T18:58:33.210Z,97817.91
2022-12-08T19:01:39.966Z,97814.16
2022-12-08T19:04:45.230Z,97812.53
2022-12-08T19:07:48.820Z,97823.22
2022-12-08T19:10:52.247Z,97824.47
2022-12-08T19:13:56.811Z,97834.81
2022-12-08T19:17:00.886Z,97826.66
2022-12-08T19:20:09.127Z,97833.81
2022-12-08T19:23:13.458Z,97837.28
2022-12-08T19:26:17.404Z,97833.31
2022-12-08T19:29:20.758Z,97830.84
2022-12-08T19:32:24.611Z,97827.25
2022-12-08T19:35:29.494Z,97830.75
2022-12-08T19:38:53.953Z,97826.53
2022-12-08T19:42:14.898Z,97827.72
2022-12-08T19:45:22.338Z,97824.19
2022-12-08T19:48:26.000Z,97818.13
2022-12-08T19:51:30.968Z,97823.94
2022-12-08T19:54:34.510Z,97823.13
2022-12-08T19:57:38.467Z,97823.75
2022-12-08T20:00:42.800Z,97822.78
2022-12-08T20:03:46.457Z,97831.84
2022-12-08T20:06:53.577Z,97821.78
2022-12-08T20:09:57.226Z,97819.63
2022-12-08T20:13:15.934Z,97816.94
2022-12-08T20:16:19.768Z,97819.78
2022-12-08T20:19:23.002Z,97811.97
2022-12-08T20:22:27.902Z,97808.13
2022-12-08T20:25:31.140Z,97815.00
2022-12-08T20:28:35.395Z,97813.19
2022-12-08T20:31:39.568Z,97815.50
2022-12-08T20:34:43.341Z,97811.84
2022-12-08T20:37:48.214Z,97814.25
2022-12-08T20:40:51.924Z,97820.13
2022-12-08T20:43:55.385Z,97807.84
2022-12-08T20:46:58.938Z,97812.25
2022-12-08T20:50:02.396Z,97804.19
2022-12-08T20:53:07.633Z,97807.31
2022-12-08T20:56:16.754Z,97812.88
2022-12-08T20:59:20.825Z,97813.59
2022-12-08T21:02:24.449Z,97812.78
2022-12-08T21:05:29.226Z,97808.03
2022-12-08T21:08:36.357Z,97798.63
2022-12-08T21:11:40.426Z,97792.91
2022-12-08T21:14:43.911Z,97790.13
2022-12-08T21:17:47.740Z,97793.31
2022-12-08T21:20:52.814Z,97795.28
2022-12-08T21:23:58.017Z,97796.31
2022-12-08T21:27:01.532Z,97793.22
2022-12-08T21:30:07.688Z,97802.16
2022-12-08T21:33:11.618Z,97799.41
2022-12-08T21:36:18.364Z,97793.75
2022-12-08T21:39:23.193Z,97794.91
2022-12-08T21:42:45.094Z,97798.06
2022-12-08T21:45:48.796Z,97794.84
2022-12-08T21:48:52.467Z,97801.63
2022-12-08T21:51:57.034Z,97799.66
2022-12-08T21:55:02.145Z,97795.28
2022-12-08T21:58:05.947Z,97784.53
2022-12-08T22:01:12.478Z,97792.81
2022-12-08T22:04:21.441Z,97797.63
2022-12-08T22:07:25.366Z,97789.22
2022-12-08T22:10:30.256Z,97798.78
2022-12-08T22:13:36.062Z,97798.78
2022-12-08T22:16:40.364Z,97796.75
2022-12-08T22:19:44.395Z,97792.38
2022-12-08T22:22:47.721Z,97793.22
2022-12-08T22:25:59.218Z,97789.00
2022-12-08T22:29:02.948Z,97786.50
2022-12-08T22:32:07.065Z,97797.69
2022-12-08T22:35:12.076Z,97798.94
2022-12-08T22:38:15.628Z,97793.88
2022-12-08T22:41:21.871Z,97800.41
2022-12-08T22:44:25.598Z,97801.00
2022-12-08T22:47:30.382Z,97798.34
2022-12-08T22:50:34.000Z,97793.72
2022-12-08T22:53:37.564Z,97795.81
2022-12-08T22:56:42.653Z,97795.97
2022-12-08T22:59:46.052Z,97801.56
2022-12-08T23:02:49.938Z,97788.16
2022-12-08T23:05:53.695Z,97783.09
2022-12-08T23:08:58.189Z,97785.66
2022-12-08T23:12:03.213Z,97777.00
2022-12-08T23:15:08.740Z,97775.38
2022-12-08T23:18:19.116Z,97769.91
2022-12-08T23:21:23.400Z,97767.13
2022-12-08T23:24:26.824Z,97773.44
2022-12-08T23:27:33.100Z,97771.84
2022-12-08T23:30:37.506Z,97770.28
2022-12-08T23:33:41.552Z,97767.13
2022-12-08T23:36:44.994Z,97767.88
2022-12-08T23:39:48.503Z,97767.56
2022-12-08T23:42:53.142Z,97767.66
2022-12-08T23:45:57.022Z,97767.34
2022-12-08T23:49:00.459Z,97770.19
2022-12-08T23:52:04.860Z,97773.78
2022-12-08T23:55:11.110Z,97773.34
2022-12-08T23:58:16.234Z,97773.22
